Terminal Aerodrome Forecast
Issued by NWS

Home | Current Version | Previous Version | Text Only | Print | Product List | Glossary On
Versions: 1 2 3 4 5 6 7 8 9 10 11 12 13 14 15 16 17 18 19 20 21
000
FTUS43 KAPX 251409 CCA
TAFAPN
TAF COR
KAPN 251409Z 2514/2612 13007KT P6SM SCT004 OVC040 WS020/18035KT
      TEMPO 2514/2518 BKN004
     FM251800 17010G17KT P6SM VCSH BKN040 BKN120
     FM251900 20013G24KT P6SM VCSH SCT040 BKN120
     FM260200 20007KT P6SM FEW070 SCT250 WS020/24030KT=

USA.gov is the U.S. government's official web portal to all federal, state and local government web resources and services.